sensor_id;sensor_type;location;lat;lon;timestamp;temperature;humidity
51950;DHT22;37974;53.218;6.640;2023-11-18T00:02:17;1.30;99.90
51950;DHT22;37974;53.218;6.640;2023-11-18T00:04:43;1.20;99.90
51950;DHT22;37974;53.218;6.640;2023-11-18T00:07:09;1.10;99.90
51950;DHT22;37974;53.218;6.640;2023-11-18T00:09:35;0.70;99.90
51950;DHT22;37974;53.218;6.640;2023-11-18T00:12:00;1.60;99.90
51950;DHT22;37974;53.218;6.640;2023-11-18T00:14:26;1.10;99.90
51950;DHT22;37974;53.218;6.640;2023-11-18T00:16:52;1.50;99.90
51950;DHT22;37974;53.218;6.640;2023-11-18T00:19:18;1.90;99.90
51950;DHT22;37974;53.218;6.640;2023-11-18T00:21:44;1.10;99.90
51950;DHT22;37974;53.218;6.640;2023-11-18T00:24:09;1.70;99.90
51950;DHT22;37974;53.218;6.640;2023-11-18T00:26:35;1.30;99.90
51950;DHT22;37974;53.218;6.640;2023-11-18T00:29:01;2.20;99.90
51950;DHT22;37974;53.218;6.640;2023-11-18T00:31:27;1.10;99.90
51950;DHT22;37974;53.218;6.640;2023-11-18T00:33:52;1.20;99.90
51950;DHT22;37974;53.218;6.640;2023-11-18T00:36:18;1.20;99.90
51950;DHT22;37974;53.218;6.640;2023-11-18T00:38:44;1.20;99.90
51950;DHT22;37974;53.218;6.640;2023-11-18T00:41:10;1.10;99.90
51950;DHT22;37974;53.218;6.640;2023-11-18T00:43:35;1.50;99.90
51950;DHT22;37974;53.218;6.640;2023-11-18T00:46:01;1.10;99.90
51950;DHT22;37974;53.218;6.640;2023-11-18T00:48:29;1.00;99.90
51950;DHT22;37974;53.218;6.640;2023-11-18T00:50:55;2.20;99.90
51950;DHT22;37974;53.218;6.640;2023-11-18T00:53:22;2.30;99.90
51950;DHT22;37974;53.218;6.640;2023-11-18T00:55:48;1.50;99.90
51950;DHT22;37974;53.218;6.640;2023-11-18T00:58:14;1.00;99.90
51950;DHT22;37974;53.218;6.640;2023-11-18T01:00:40;1.90;99.90
51950;DHT22;37974;53.218;6.640;2023-11-18T01:03:05;0.90;99.90
51950;DHT22;37974;53.218;6.640;2023-11-18T01:05:31;1.70;99.90
51950;DHT22;37974;53.218;6.640;2023-11-18T01:07:57;1.50;99.90
51950;DHT22;37974;53.218;6.640;2023-11-18T01:10:23;1.60;99.90
51950;DHT22;37974;53.218;6.640;2023-11-18T01:12:49;1.50;99.90
51950;DHT22;37974;53.218;6.640;2023-11-18T01:15:14;1.10;99.90
51950;DHT22;37974;53.218;6.640;2023-11-18T01:17:40;1.60;99.90
51950;DHT22;37974;53.218;6.640;2023-11-18T01:20:07;1.20;99.90
51950;DHT22;37974;53.218;6.640;2023-11-18T01:22:37;1.20;99.90
51950;DHT22;37974;53.218;6.640;2023-11-18T01:25:05;1.00;99.90
51950;DHT22;37974;53.218;6.640;2023-11-18T01:27:31;1.00;99.90
51950;DHT22;37974;53.218;6.640;2023-11-18T01:29:59;1.10;99.90
51950;DHT22;37974;53.218;6.640;2023-11-18T01:32:25;1.90;99.90
51950;DHT22;37974;53.218;6.640;2023-11-18T01:34:51;1.20;99.90
51950;DHT22;37974;53.218;6.640;2023-11-18T01:37:19;1.50;99.90
51950;DHT22;37974;53.218;6.640;2023-11-18T01:39:47;1.30;99.90
51950;DHT22;37974;53.218;6.640;2023-11-18T01:42:12;1.40;99.90
51950;DHT22;37974;53.218;6.640;2023-11-18T01:44:38;1.40;99.90
51950;DHT22;37974;53.218;6.640;2023-11-18T01:47:05;1.40;99.90
51950;DHT22;37974;53.218;6.640;2023-11-18T01:49:33;1.50;99.90
51950;DHT22;37974;53.218;6.640;2023-11-18T01:52:02;1.70;99.90
51950;DHT22;37974;53.218;6.640;2023-11-18T01:54:29;1.50;99.90
51950;DHT22;37974;53.218;6.640;2023-11-18T01:56:55;1.50;99.90
51950;DHT22;37974;53.218;6.640;2023-11-18T01:59:22;1.50;99.90
51950;DHT22;37974;53.218;6.640;2023-11-18T02:01:49;1.60;99.90
51950;DHT22;37974;53.218;6.640;2023-11-18T02:04:15;1.60;99.90
51950;DHT22;37974;53.218;6.640;2023-11-18T02:06:42;1.60;99.90
51950;DHT22;37974;53.218;6.640;2023-11-18T02:09:11;1.70;99.90
51950;DHT22;37974;53.218;6.640;2023-11-18T02:11:52;2.10;99.90
51950;DHT22;37974;53.218;6.640;2023-11-18T02:14:20;1.60;99.90
51950;DHT22;37974;53.218;6.640;2023-11-18T02:16:49;2.30;99.90
51950;DHT22;37974;53.218;6.640;2023-11-18T02:19:20;2.40;99.90
51950;DHT22;37974;53.218;6.640;2023-11-18T02:21:48;2.20;99.90
51950;DHT22;37974;53.218;6.640;2023-11-18T02:24:25;1.60;99.90
51950;DHT22;37974;53.218;6.640;2023-11-18T02:26:52;1.60;99.90
51950;DHT22;37974;53.218;6.640;2023-11-18T02:29:18;2.10;99.90
51950;DHT22;37974;53.218;6.640;2023-11-18T02:31:46;2.50;99.90
51950;DHT22;37974;53.218;6.640;2023-11-18T02:34:18;2.00;99.90
51950;DHT22;37974;53.218;6.640;2023-11-18T02:36:48;2.20;99.90
51950;DHT22;37974;53.218;6.640;2023-11-18T02:42:04;2.00;99.90
51950;DHT22;37974;53.218;6.640;2023-11-18T02:44:35;1.50;99.90
51950;DHT22;37974;53.218;6.640;2023-11-18T02:47:02;2.40;99.90
51950;DHT22;37974;53.218;6.640;2023-11-18T02:49:31;1.50;99.90
51950;DHT22;37974;53.218;6.640;2023-11-18T02:51:57;1.60;99.90
51950;DHT22;37974;53.218;6.640;2023-11-18T02:54:23;2.60;99.90
51950;DHT22;37974;53.218;6.640;2023-11-18T02:56:49;2.80;99.90
51950;DHT22;37974;53.218;6.640;2023-11-18T02:59:16;1.90;99.90
51950;DHT22;37974;53.218;6.640;2023-11-18T03:01:42;1.70;99.90
51950;DHT22;37974;53.218;6.640;2023-11-18T03:04:07;2.80;99.90
51950;DHT22;37974;53.218;6.640;2023-11-18T03:06:34;2.00;99.90
51950;DHT22;37974;53.218;6.640;2023-11-18T03:09:01;2.00;99.90
51950;DHT22;37974;53.218;6.640;2023-11-18T03:11:28;1.90;99.90
51950;DHT22;37974;53.218;6.640;2023-11-18T03:13:57;1.90;99.90
51950;DHT22;37974;53.218;6.640;2023-11-18T03:16:23;1.90;99.90
51950;DHT22;37974;53.218;6.640;2023-11-18T03:18:50;1.90;99.90
51950;DHT22;37974;53.218;6.640;2023-11-18T03:21:16;1.80;99.90
51950;DHT22;37974;53.218;6.640;2023-11-18T03:23:42;2.50;99.90
51950;DHT22;37974;53.218;6.640;2023-11-18T03:26:09;2.50;99.90
51950;DHT22;37974;53.218;6.640;2023-11-18T03:28:36;1.90;99.90
51950;DHT22;37974;53.218;6.640;2023-11-18T03:31:05;2.00;99.90
51950;DHT22;37974;53.218;6.640;2023-11-18T03:33:31;1.90;99.90
51950;DHT22;37974;53.218;6.640;2023-11-18T03:35:57;1.90;99.90
51950;DHT22;37974;53.218;6.640;2023-11-18T03:38:24;1.60;99.90
51950;DHT22;37974;53.218;6.640;2023-11-18T03:40:50;1.90;99.90
51950;DHT22;37974;53.218;6.640;2023-11-18T03:43:18;2.00;99.90
51950;DHT22;37974;53.218;6.640;2023-11-18T03:45:45;2.00;99.90
51950;DHT22;37974;53.218;6.640;2023-11-18T03:48:11;1.40;99.90
51950;DHT22;37974;53.218;6.640;2023-11-18T03:50:44;2.70;99.90
51950;DHT22;37974;53.218;6.640;2023-11-18T03:53:11;2.10;99.90
51950;DHT22;37974;53.218;6.640;2023-11-18T03:55:36;2.00;99.90
51950;DHT22;37974;53.218;6.640;2023-11-18T03:58:02;2.10;99.90
51950;DHT22;37974;53.218;6.640;2023-11-18T04:00:33;2.10;99.90
51950;DHT22;37974;53.218;6.640;2023-11-18T04:02:59;2.10;99.90
51950;DHT22;37974;53.218;6.640;2023-11-18T04:05:25;2.20;99.90
51950;DHT22;37974;53.218;6.640;2023-11-18T04:07:51;2.10;99.90
51950;DHT22;37974;53.218;6.640;2023-11-18T04:10:17;2.50;99.90
51950;DHT22;37974;53.218;6.640;2023-11-18T04:12:44;2.10;99.90
51950;DHT22;37974;53.218;6.640;2023-11-18T04:15:14;2.10;99.90
51950;DHT22;37974;53.218;6.640;2023-11-18T04:17:41;2.00;99.90
51950;DHT22;37974;53.218;6.640;2023-11-18T04:20:09;2.10;99.90
51950;DHT22;37974;53.218;6.640;2023-11-18T04:22:40;2.00;99.90
51950;DHT22;37974;53.218;6.640;2023-11-18T04:25:09;2.00;99.90
51950;DHT22;37974;53.218;6.640;2023-11-18T04:27:36;2.20;99.90
51950;DHT22;37974;53.218;6.640;2023-11-18T04:30:02;1.90;99.90
51950;DHT22;37974;53.218;6.640;2023-11-18T04:32:28;1.90;99.90
51950;DHT22;37974;53.218;6.640;2023-11-18T04:34:53;1.90;99.90
51950;DHT22;37974;53.218;6.640;2023-11-18T04:37:19;2.00;99.90
51950;DHT22;37974;53.218;6.640;2023-11-18T04:39:45;1.90;99.90
51950;DHT22;37974;53.218;6.640;2023-11-18T04:42:11;1.90;99.90
51950;DHT22;37974;53.218;6.640;2023-11-18T04:44:37;2.20;99.90
51950;DHT22;37974;53.218;6.640;2023-11-18T04:47:04;2.70;99.90
51950;DHT22;37974;53.218;6.640;2023-11-18T04:49:30;2.00;99.90
51950;DHT22;37974;53.218;6.640;2023-11-18T04:51:55;1.90;99.90
51950;DHT22;37974;53.218;6.640;2023-11-18T04:54:21;2.00;99.90
51950;DHT22;37974;53.218;6.640;2023-11-18T04:56:47;2.00;99.90
51950;DHT22;37974;53.218;6.640;2023-11-18T04:59:16;2.00;99.90
51950;DHT22;37974;53.218;6.640;2023-11-18T05:01:43;2.00;99.90
51950;DHT22;37974;53.218;6.640;2023-11-18T05:04:09;2.00;99.90
51950;DHT22;37974;53.218;6.640;2023-11-18T05:06:35;2.10;99.90
51950;DHT22;37974;53.218;6.640;2023-11-18T05:09:01;2.10;99.90
51950;DHT22;37974;53.218;6.640;2023-11-18T05:11:26;2.10;99.90
51950;DHT22;37974;53.218;6.640;2023-11-18T05:13:52;2.60;99.90
51950;DHT22;37974;53.218;6.640;2023-11-18T05:16:19;2.10;99.90
51950;DHT22;37974;53.218;6.640;2023-11-18T05:18:45;2.50;99.90
51950;DHT22;37974;53.218;6.640;2023-11-18T05:21:11;1.70;99.90
51950;DHT22;37974;53.218;6.640;2023-11-18T05:23:37;1.70;99.90
51950;DHT22;37974;53.218;6.640;2023-11-18T05:26:03;2.00;99.90
51950;DHT22;37974;53.218;6.640;2023-11-18T05:28:31;2.10;99.90
51950;DHT22;37974;53.218;6.640;2023-11-18T05:30:58;2.10;99.90
51950;DHT22;37974;53.218;6.640;2023-11-18T05:33:26;2.60;99.90
51950;DHT22;37974;53.218;6.640;2023-11-18T05:35:53;2.10;99.90
51950;DHT22;37974;53.218;6.640;2023-11-18T05:38:20;2.10;99.90
51950;DHT22;37974;53.218;6.640;2023-11-18T05:40:48;2.10;99.90
51950;DHT22;37974;53.218;6.640;2023-11-18T05:43:26;2.70;99.90
51950;DHT22;37974;53.218;6.640;2023-11-18T05:45:55;2.20;99.90
51950;DHT22;37974;53.218;6.640;2023-11-18T05:48:43;2.20;99.90
51950;DHT22;37974;53.218;6.640;2023-11-18T05:51:09;2.30;99.90
51950;DHT22;37974;53.218;6.640;2023-11-18T05:53:40;2.30;99.90
51950;DHT22;37974;53.218;6.640;2023-11-18T05:56:07;2.90;99.90
51950;DHT22;37974;53.218;6.640;2023-11-18T05:58:36;2.30;99.90
51950;DHT22;37974;53.218;6.640;2023-11-18T06:01:03;2.30;99.90
51950;DHT22;37974;53.218;6.640;2023-11-18T06:03:29;2.30;99.90
51950;DHT22;37974;53.218;6.640;2023-11-18T06:05:54;2.40;99.90
51950;DHT22;37974;53.218;6.640;2023-11-18T06:08:21;2.40;99.90
51950;DHT22;37974;53.218;6.640;2023-11-18T06:10:51;2.40;99.90
51950;DHT22;37974;53.218;6.640;2023-11-18T06:13:22;2.90;99.90
51950;DHT22;37974;53.218;6.640;2023-11-18T06:15:52;3.30;99.90
51950;DHT22;37974;53.218;6.640;2023-11-18T06:18:29;2.80;99.90
51950;DHT22;37974;53.218;6.640;2023-11-18T06:21:22;2.50;99.90
51950;DHT22;37974;53.218;6.640;2023-11-18T06:24:06;2.90;99.90
51950;DHT22;37974;53.218;6.640;2023-11-18T06:26:33;1.90;99.90
51950;DHT22;37974;53.218;6.640;2023-11-18T06:29:11;2.60;99.90
51950;DHT22;37974;53.218;6.640;2023-11-18T06:31:47;2.60;99.90
51950;DHT22;37974;53.218;6.640;2023-11-18T06:34:14;2.70;99.90
51950;DHT22;37974;53.218;6.640;2023-11-18T06:36:44;2.70;99.90
51950;DHT22;37974;53.218;6.640;2023-11-18T06:39:14;2.40;99.90
51950;DHT22;37974;53.218;6.640;2023-11-18T06:41:50;2.70;99.90
51950;DHT22;37974;53.218;6.640;2023-11-18T06:44:16;2.70;99.90
51950;DHT22;37974;53.218;6.640;2023-11-18T06:47:07;2.80;99.90
51950;DHT22;37974;53.218;6.640;2023-11-18T06:52:38;2.80;99.90
51950;DHT22;37974;53.218;6.640;2023-11-18T06:55:04;2.70;99.90
51950;DHT22;37974;53.218;6.640;2023-11-18T06:57:30;2.90;99.90
51950;DHT22;37974;53.218;6.640;2023-11-18T07:00:00;2.90;99.90
51950;DHT22;37974;53.218;6.640;2023-11-18T07:02:26;2.90;99.90
51950;DHT22;37974;53.218;6.640;2023-11-18T07:04:55;2.90;99.90
51950;DHT22;37974;53.218;6.640;2023-11-18T07:07:24;3.00;99.90
51950;DHT22;37974;53.218;6.640;2023-11-18T07:09:58;2.30;99.90
51950;DHT22;37974;53.218;6.640;2023-11-18T07:17:05;3.30;99.90
51950;DHT22;37974;53.218;6.640;2023-11-18T07:20:00;2.50;99.90
51950;DHT22;37974;53.218;6.640;2023-11-18T07:25:20;2.90;99.90
51950;DHT22;37974;53.218;6.640;2023-11-18T07:27:58;3.20;99.90
51950;DHT22;37974;53.218;6.640;2023-11-18T07:30:25;3.20;99.90
51950;DHT22;37974;53.218;6.640;2023-11-18T07:32:51;3.20;99.90
51950;DHT22;37974;53.218;6.640;2023-11-18T07:35:17;3.20;99.90
51950;DHT22;37974;53.218;6.640;2023-11-18T07:37:46;3.30;99.90
51950;DHT22;37974;53.218;6.640;2023-11-18T07:40:14;3.30;99.90
51950;DHT22;37974;53.218;6.640;2023-11-18T07:43:25;3.30;99.90
51950;DHT22;37974;53.218;6.640;2023-11-18T07:45:39;4.00;99.90
51950;DHT22;37974;53.218;6.640;2023-11-18T07:48:09;2.90;99.90
51950;DHT22;37974;53.218;6.640;2023-11-18T07:50:37;3.30;99.90
51950;DHT22;37974;53.218;6.640;2023-11-18T07:53:03;3.30;99.90
51950;DHT22;37974;53.218;6.640;2023-11-18T07:55:32;3.30;99.90
51950;DHT22;37974;53.218;6.640;2023-11-18T07:58:01;3.30;99.90
51950;DHT22;37974;53.218;6.640;2023-11-18T08:01:03;3.40;99.90
51950;DHT22;37974;53.218;6.640;2023-11-18T08:04:07;2.90;99.90
51950;DHT22;37974;53.218;6.640;2023-11-18T08:06:35;3.40;99.90
51950;DHT22;37974;53.218;6.640;2023-11-18T08:13:10;3.50;99.90
51950;DHT22;37974;53.218;6.640;2023-11-18T08:15:41;3.60;99.90
51950;DHT22;37974;53.218;6.640;2023-11-18T08:18:11;3.60;99.90
51950;DHT22;37974;53.218;6.640;2023-11-18T08:24:01;3.60;99.90
51950;DHT22;37974;53.218;6.640;2023-11-18T08:26:35;3.60;99.90
51950;DHT22;37974;53.218;6.640;2023-11-18T08:29:03;3.70;99.90
51950;DHT22;37974;53.218;6.640;2023-11-18T08:31:52;3.70;99.90
51950;DHT22;37974;53.218;6.640;2023-11-18T08:34:41;3.80;99.90
51950;DHT22;37974;53.218;6.640;2023-11-18T08:37:11;3.80;99.90
51950;DHT22;37974;53.218;6.640;2023-11-18T08:39:59;4.20;99.90
51950;DHT22;37974;53.218;6.640;2023-11-18T08:46:36;3.90;99.90
51950;DHT22;37974;53.218;6.640;2023-11-18T08:57:54;3.40;99.90
51950;DHT22;37974;53.218;6.640;2023-11-18T09:00:31;3.40;99.90
51950;DHT22;37974;53.218;6.640;2023-11-18T09:03:35;4.00;99.90
51950;DHT22;37974;53.218;6.640;2023-11-18T09:06:10;4.40;99.90
51950;DHT22;37974;53.218;6.640;2023-11-18T09:09:47;4.00;99.90
51950;DHT22;37974;53.218;6.640;2023-11-18T09:13:10;3.70;99.90
51950;DHT22;37974;53.218;6.640;2023-11-18T09:15:57;4.10;99.90
51950;DHT22;37974;53.218;6.640;2023-11-18T09:18:42;3.30;99.90
51950;DHT22;37974;53.218;6.640;2023-11-18T09:21:20;4.00;99.90
51950;DHT22;37974;53.218;6.640;2023-11-18T09:24:07;4.90;99.90
51950;DHT22;37974;53.218;6.640;2023-11-18T09:29:42;4.20;99.90
51950;DHT22;37974;53.218;6.640;2023-11-18T09:32:44;4.10;99.90
51950;DHT22;37974;53.218;6.640;2023-11-18T09:35:42;4.10;99.90
51950;DHT22;37974;53.218;6.640;2023-11-18T09:38:31;4.20;99.90
51950;DHT22;37974;53.218;6.640;2023-11-18T09:41:01;4.10;99.90
51950;DHT22;37974;53.218;6.640;2023-11-18T09:43:50;4.20;99.90
51950;DHT22;37974;53.218;6.640;2023-11-18T09:47:04;3.80;99.90
51950;DHT22;37974;53.218;6.640;2023-11-18T09:50:16;4.30;99.90
51950;DHT22;37974;53.218;6.640;2023-11-18T09:56:18;3.90;99.90
51950;DHT22;37974;53.218;6.640;2023-11-18T09:59:25;4.20;99.90
51950;DHT22;37974;53.218;6.640;2023-11-18T10:02:04;3.90;99.90
51950;DHT22;37974;53.218;6.640;2023-11-18T10:04:41;4.20;99.90
51950;DHT22;37974;53.218;6.640;2023-11-18T10:07:33;4.20;99.90
51950;DHT22;37974;53.218;6.640;2023-11-18T10:10:09;4.20;99.90
51950;DHT22;37974;53.218;6.640;2023-11-18T10:12:46;4.20;99.90
51950;DHT22;37974;53.218;6.640;2023-11-18T10:15:21;4.30;99.90
51950;DHT22;37974;53.218;6.640;2023-11-18T10:17:54;4.30;99.90
51950;DHT22;37974;53.218;6.640;2023-11-18T10:23:08;4.30;99.90
51950;DHT22;37974;53.218;6.640;2023-11-18T10:26:05;4.30;99.90
51950;DHT22;37974;53.218;6.640;2023-11-18T10:28:37;4.20;99.90
51950;DHT22;37974;53.218;6.640;2023-11-18T10:31:09;4.30;99.90
51950;DHT22;37974;53.218;6.640;2023-11-18T10:33:43;4.30;99.90
51950;DHT22;37974;53.218;6.640;2023-11-18T10:36:22;4.20;99.90
51950;DHT22;37974;53.218;6.640;2023-11-18T10:39:17;4.20;99.90
51950;DHT22;37974;53.218;6.640;2023-11-18T10:42:11;4.70;99.90
51950;DHT22;37974;53.218;6.640;2023-11-18T10:45:09;4.20;99.90
51950;DHT22;37974;53.218;6.640;2023-11-18T10:48:24;4.20;99.90
51950;DHT22;37974;53.218;6.640;2023-11-18T10:50:52;4.20;99.90
51950;DHT22;37974;53.218;6.640;2023-11-18T10:53:36;4.20;99.90
51950;DHT22;37974;53.218;6.640;2023-11-18T10:56:45;4.00;99.90
51950;DHT22;37974;53.218;6.640;2023-11-18T10:59:05;5.00;99.90
51950;DHT22;37974;53.218;6.640;2023-11-18T11:01:45;4.60;99.90
51950;DHT22;37974;53.218;6.640;2023-11-18T11:04:15;4.20;99.90
51950;DHT22;37974;53.218;6.640;2023-11-18T11:06:50;4.20;99.90
51950;DHT22;37974;53.218;6.640;2023-11-18T11:09:39;4.30;99.90
51950;DHT22;37974;53.218;6.640;2023-11-18T11:12:27;4.30;99.90
51950;DHT22;37974;53.218;6.640;2023-11-18T11:15:00;4.30;99.90
51950;DHT22;37974;53.218;6.640;2023-11-18T11:17:35;4.90;99.90
51950;DHT22;37974;53.218;6.640;2023-11-18T11:20:07;4.40;99.90
51950;DHT22;37974;53.218;6.640;2023-11-18T11:23:17;4.40;99.90
51950;DHT22;37974;53.218;6.640;2023-11-18T12:02:38;4.60;99.90
51950;DHT22;37974;53.218;6.640;2023-11-18T12:05:35;4.60;99.90
51950;DHT22;37974;53.218;6.640;2023-11-18T12:08:36;4.50;99.90
51950;DHT22;37974;53.218;6.640;2023-11-18T12:11:06;4.50;99.90
51950;DHT22;37974;53.218;6.640;2023-11-18T12:13:39;4.60;99.90
51950;DHT22;37974;53.218;6.640;2023-11-18T12:16:11;4.60;99.90
51950;DHT22;37974;53.218;6.640;2023-11-18T12:22:23;4.60;99.90
51950;DHT22;37974;53.218;6.640;2023-11-18T12:40:09;4.70;99.90
51950;DHT22;37974;53.218;6.640;2023-11-18T12:43:01;4.50;99.90
51950;DHT22;37974;53.218;6.640;2023-11-18T12:49:03;5.10;99.90
51950;DHT22;37974;53.218;6.640;2023-11-18T13:03:13;4.90;99.90
51950;DHT22;37974;53.218;6.640;2023-11-18T13:05:53;4.90;99.90
51950;DHT22;37974;53.218;6.640;2023-11-18T13:16:47;5.20;99.90
51950;DHT22;37974;53.218;6.640;2023-11-18T13:19:26;4.80;99.90
51950;DHT22;37974;53.218;6.640;2023-11-18T13:22:53;4.20;99.90
51950;DHT22;37974;53.218;6.640;2023-11-18T13:25:42;4.80;99.90
51950;DHT22;37974;53.218;6.640;2023-11-18T13:28:13;4.80;99.90
51950;DHT22;37974;53.218;6.640;2023-11-18T13:30:42;4.80;99.90
51950;DHT22;37974;53.218;6.640;2023-11-18T13:33:16;4.80;99.90
51950;DHT22;37974;53.218;6.640;2023-11-18T13:36:25;4.50;99.90
51950;DHT22;37974;53.218;6.640;2023-11-18T13:38:51;4.90;99.90
51950;DHT22;37974;53.218;6.640;2023-11-18T13:44:48;4.90;99.90
51950;DHT22;37974;53.218;6.640;2023-11-18T13:47:31;4.90;99.90
51950;DHT22;37974;53.218;6.640;2023-11-18T13:50:36;5.00;99.90
51950;DHT22;37974;53.218;6.640;2023-11-18T13:54:10;5.00;99.90
51950;DHT22;37974;53.218;6.640;2023-11-18T13:56:21;4.80;99.90
51950;DHT22;37974;53.218;6.640;2023-11-18T13:58:49;5.00;99.90
51950;DHT22;37974;53.218;6.640;2023-11-18T14:01:15;5.10;99.90
51950;DHT22;37974;53.218;6.640;2023-11-18T14:03:49;5.00;99.90
51950;DHT22;37974;53.218;6.640;2023-11-18T14:13:54;5.10;99.90
51950;DHT22;37974;53.218;6.640;2023-11-18T14:16:31;5.10;99.90
51950;DHT22;37974;53.218;6.640;2023-11-18T14:18:59;5.10;99.90
51950;DHT22;37974;53.218;6.640;2023-11-18T14:28:57;5.10;99.90
51950;DHT22;37974;53.218;6.640;2023-11-18T14:31:35;5.10;99.90
51950;DHT22;37974;53.218;6.640;2023-11-18T14:34:24;5.20;99.90
51950;DHT22;37974;53.218;6.640;2023-11-18T14:37:13;5.10;99.90
51950;DHT22;37974;53.218;6.640;2023-11-18T14:40:22;5.20;99.90
51950;DHT22;37974;53.218;6.640;2023-11-18T14:43:30;4.80;99.90
51950;DHT22;37974;53.218;6.640;2023-11-18T14:46:05;5.20;99.90
51950;DHT22;37974;53.218;6.640;2023-11-18T14:52:35;5.30;99.90
51950;DHT22;37974;53.218;6.640;2023-11-18T14:59:19;5.90;99.90
51950;DHT22;37974;53.218;6.640;2023-11-18T15:06:02;5.20;99.90
51950;DHT22;37974;53.218;6.640;2023-11-18T15:46:33;5.50;99.90
51950;DHT22;37974;53.218;6.640;2023-11-18T15:56:36;5.40;99.90
51950;DHT22;37974;53.218;6.640;2023-11-18T16:11:19;5.40;99.90
51950;DHT22;37974;53.218;6.640;2023-11-18T16:13:45;5.40;99.90
51950;DHT22;37974;53.218;6.640;2023-11-18T16:16:11;5.50;99.90
51950;DHT22;37974;53.218;6.640;2023-11-18T16:18:38;5.60;99.90
51950;DHT22;37974;53.218;6.640;2023-11-18T16:21:04;5.60;99.90
51950;DHT22;37974;53.218;6.640;2023-11-18T16:23:30;5.60;99.90
51950;DHT22;37974;53.218;6.640;2023-11-18T16:26:04;5.60;99.90
51950;DHT22;37974;53.218;6.640;2023-11-18T16:28:39;5.20;99.90
51950;DHT22;37974;53.218;6.640;2023-11-18T16:31:06;5.60;99.90
51950;DHT22;37974;53.218;6.640;2023-11-18T16:33:31;5.70;99.90
51950;DHT22;37974;53.218;6.640;2023-11-18T16:35:58;5.70;99.90
51950;DHT22;37974;53.218;6.640;2023-11-18T16:38:24;5.70;99.90
51950;DHT22;37974;53.218;6.640;2023-11-18T16:40:52;5.60;99.90
51950;DHT22;37974;53.218;6.640;2023-11-18T16:43:21;5.30;99.90
51950;DHT22;37974;53.218;6.640;2023-11-18T16:45:47;5.70;99.90
51950;DHT22;37974;53.218;6.640;2023-11-18T16:48:13;5.70;99.90
51950;DHT22;37974;53.218;6.640;2023-11-18T16:50:38;5.70;99.90
51950;DHT22;37974;53.218;6.640;2023-11-18T16:53:05;5.70;99.90
51950;DHT22;37974;53.218;6.640;2023-11-18T16:55:31;5.80;99.90
51950;DHT22;37974;53.218;6.640;2023-11-18T16:58:00;5.80;99.90
51950;DHT22;37974;53.218;6.640;2023-11-18T17:00:28;5.80;99.90
51950;DHT22;37974;53.218;6.640;2023-11-18T17:02:56;5.80;99.90
51950;DHT22;37974;53.218;6.640;2023-11-18T17:05:23;5.80;99.90
51950;DHT22;37974;53.218;6.640;2023-11-18T17:07:51;5.80;99.90
51950;DHT22;37974;53.218;6.640;2023-11-18T17:10:20;5.40;99.90
51950;DHT22;37974;53.218;6.640;2023-11-18T17:12:48;5.80;99.90
51950;DHT22;37974;53.218;6.640;2023-11-18T17:15:14;5.80;99.90
51950;DHT22;37974;53.218;6.640;2023-11-18T17:17:42;5.90;99.90
51950;DHT22;37974;53.218;6.640;2023-11-18T17:20:09;5.80;99.90
51950;DHT22;37974;53.218;6.640;2023-11-18T17:22:36;5.90;99.90
51950;DHT22;37974;53.218;6.640;2023-11-18T17:25:10;5.90;99.90
51950;DHT22;37974;53.218;6.640;2023-11-18T17:27:43;6.40;99.90
51950;DHT22;37974;53.218;6.640;2023-11-18T17:30:13;5.90;99.90
51950;DHT22;37974;53.218;6.640;2023-11-18T17:32:47;5.90;99.90
51950;DHT22;37974;53.218;6.640;2023-11-18T17:35:15;6.00;99.90
51950;DHT22;37974;53.218;6.640;2023-11-18T17:37:45;5.90;99.90
51950;DHT22;37974;53.218;6.640;2023-11-18T17:40:12;5.90;99.90
51950;DHT22;37974;53.218;6.640;2023-11-18T17:42:38;6.00;99.90
51950;DHT22;37974;53.218;6.640;2023-11-18T17:45:08;6.00;99.90
51950;DHT22;37974;53.218;6.640;2023-11-18T17:47:34;6.10;99.90
51950;DHT22;37974;53.218;6.640;2023-11-18T17:50:02;6.00;99.90
51950;DHT22;37974;53.218;6.640;2023-11-18T17:52:29;6.10;99.90
51950;DHT22;37974;53.218;6.640;2023-11-18T17:54:55;6.00;99.90
51950;DHT22;37974;53.218;6.640;2023-11-18T17:57:21;6.00;99.90
51950;DHT22;37974;53.218;6.640;2023-11-18T17:59:48;6.10;99.90
51950;DHT22;37974;53.218;6.640;2023-11-18T18:02:17;6.10;99.90
51950;DHT22;37974;53.218;6.640;2023-11-18T18:04:43;6.00;99.90
51950;DHT22;37974;53.218;6.640;2023-11-18T18:07:09;6.00;99.90
51950;DHT22;37974;53.218;6.640;2023-11-18T18:09:37;6.10;99.90
51950;DHT22;37974;53.218;6.640;2023-11-18T18:12:04;6.10;99.90
51950;DHT22;37974;53.218;6.640;2023-11-18T18:14:30;6.10;99.90
51950;DHT22;37974;53.218;6.640;2023-11-18T18:16:57;6.10;99.90
51950;DHT22;37974;53.218;6.640;2023-11-18T18:19:23;6.10;99.90
51950;DHT22;37974;53.218;6.640;2023-11-18T18:21:49;6.10;99.90
51950;DHT22;37974;53.218;6.640;2023-11-18T18:24:15;6.10;99.90
51950;DHT22;37974;53.218;6.640;2023-11-18T18:26:41;6.20;99.90
51950;DHT22;37974;53.218;6.640;2023-11-18T18:29:06;6.20;99.90
51950;DHT22;37974;53.218;6.640;2023-11-18T18:31:32;6.10;99.90
51950;DHT22;37974;53.218;6.640;2023-11-18T18:33:59;6.20;99.90
51950;DHT22;37974;53.218;6.640;2023-11-18T18:36:25;6.20;99.90
51950;DHT22;37974;53.218;6.640;2023-11-18T18:38:51;6.10;99.90
51950;DHT22;37974;53.218;6.640;2023-11-18T18:41:17;6.10;99.90
51950;DHT22;37974;53.218;6.640;2023-11-18T18:43:43;6.10;99.90
51950;DHT22;37974;53.218;6.640;2023-11-18T18:46:09;6.20;99.90
51950;DHT22;37974;53.218;6.640;2023-11-18T18:48:36;6.00;99.90
51950;DHT22;37974;53.218;6.640;2023-11-18T18:51:02;6.20;99.90
51950;DHT22;37974;53.218;6.640;2023-11-18T18:53:29;6.20;99.90
51950;DHT22;37974;53.218;6.640;2023-11-18T18:55:55;6.20;99.90
51950;DHT22;37974;53.218;6.640;2023-11-18T18:58:20;6.20;99.90
51950;DHT22;37974;53.218;6.640;2023-11-18T19:00:46;6.20;99.90
51950;DHT22;37974;53.218;6.640;2023-11-18T19:03:16;6.20;99.90
51950;DHT22;37974;53.218;6.640;2023-11-18T19:05:42;6.20;99.90
51950;DHT22;37974;53.218;6.640;2023-11-18T19:08:08;6.20;99.90
51950;DHT22;37974;53.218;6.640;2023-11-18T19:10:35;6.20;99.90
51950;DHT22;37974;53.218;6.640;2023-11-18T19:13:02;6.30;99.90
51950;DHT22;37974;53.218;6.640;2023-11-18T19:15:29;6.30;99.90
51950;DHT22;37974;53.218;6.640;2023-11-18T19:17:55;6.20;99.90
51950;DHT22;37974;53.218;6.640;2023-11-18T19:20:31;6.30;99.90
51950;DHT22;37974;53.218;6.640;2023-11-18T19:23:03;6.30;99.90
51950;DHT22;37974;53.218;6.640;2023-11-18T19:25:31;6.40;99.90
51950;DHT22;37974;53.218;6.640;2023-11-18T19:27:58;6.30;99.90
51950;DHT22;37974;53.218;6.640;2023-11-18T19:30:28;6.30;99.90
51950;DHT22;37974;53.218;6.640;2023-11-18T19:32:58;6.70;99.90
51950;DHT22;37974;53.218;6.640;2023-11-18T19:35:24;6.40;99.90
51950;DHT22;37974;53.218;6.640;2023-11-18T19:37:52;6.40;99.90
51950;DHT22;37974;53.218;6.640;2023-11-18T19:40:18;6.50;99.90
51950;DHT22;37974;53.218;6.640;2023-11-18T19:42:44;6.50;99.90
51950;DHT22;37974;53.218;6.640;2023-11-18T19:45:10;6.40;99.90
51950;DHT22;37974;53.218;6.640;2023-11-18T19:47:38;6.40;99.90